createdAt,value
2023-01-09T08:32:53.689Z,5.80
2023-01-09T08:48:04.793Z,6.10
2023-01-09T08:50:32.135Z,6.20
2023-01-09T08:52:59.633Z,6.40
2023-01-09T08:55:27.190Z,6.50
2023-01-09T08:57:55.842Z,6.60
2023-01-09T09:00:25.285Z,6.70
2023-01-09T09:03:00.063Z,6.80
2023-01-09T09:05:31.799Z,6.90
2023-01-09T09:08:00.200Z,7.00
2023-01-09T09:10:30.622Z,7.10
2023-01-09T09:12:59.980Z,7.10
2023-01-09T09:15:28.730Z,7.30
2023-01-09T09:18:01.762Z,7.30
2023-01-09T09:20:38.051Z,7.40
2023-01-09T09:23:08.237Z,7.60
2023-01-09T09:25:38.284Z,7.90
2023-01-09T09:28:07.185Z,8.00
2023-01-09T09:30:35.455Z,8.10
2023-01-09T09:33:06.337Z,8.00
2023-01-09T09:35:35.304Z,7.90
2023-01-09T09:38:05.735Z,7.80
2023-01-09T09:41:29.613Z,8.10
2023-01-09T09:44:48.406Z,8.00
2023-01-09T09:48:29.418Z,7.90
2023-01-09T09:51:23.751Z,8.00
2023-01-09T09:54:04.669Z,8.10
2023-01-09T09:56:56.614Z,8.20
2023-01-09T09:59:34.472Z,8.20
2023-01-09T10:02:30.780Z,8.20
2023-01-09T10:05:12.382Z,8.00
2023-01-09T10:07:51.128Z,7.90
2023-01-09T10:10:44.337Z,8.00
2023-01-09T10:13:38.067Z,8.20
2023-01-09T10:16:45.648Z,8.00
2023-01-09T10:19:55.376Z,8.10
2023-01-09T10:23:51.246Z,8.10
2023-01-09T10:26:58.114Z,8.10
2023-01-09T10:30:19.901Z,8.10
2023-01-09T10:33:10.515Z,8.10
2023-01-09T10:36:26.613Z,7.90
2023-01-09T10:39:01.648Z,7.80
2023-01-09T10:41:58.977Z,7.60
2023-01-09T10:44:45.490Z,7.60
2023-01-09T10:47:37.524Z,7.50
2023-01-09T10:50:39.934Z,7.50
2023-01-09T10:53:39.692Z,7.60
2023-01-09T10:56:36.960Z,7.50
2023-01-09T10:59:04.451Z,7.20
2023-01-09T11:01:40.167Z,7.20
2023-01-09T11:04:37.624Z,7.40
2023-01-09T11:07:26.211Z,7.40
2023-01-09T11:10:08.212Z,7.80
2023-01-09T11:12:37.986Z,7.80
2023-01-09T11:15:19.548Z,8.00
2023-01-09T11:17:50.371Z,7.80
2023-01-09T11:20:30.072Z,7.80
2023-01-09T11:22:59.209Z,7.60
2023-01-09T11:25:29.082Z,7.90
2023-01-09T11:28:06.774Z,7.90
2023-01-09T11:31:02.261Z,7.80
2023-01-09T11:33:37.989Z,7.70
2023-01-09T11:36:15.663Z,8.40
2023-01-09T11:39:00.921Z,8.50
2023-01-09T11:41:35.790Z,8.60
2023-01-09T11:44:05.325Z,8.90
2023-01-09T11:46:44.006Z,9.20
2023-01-09T11:49:31.599Z,9.50
2023-01-09T11:52:22.175Z,9.50
2023-01-09T11:55:05.527Z,9.50
2023-01-09T11:57:34.579Z,9.10
2023-01-09T12:00:35.619Z,8.90
2023-01-09T12:03:58.587Z,8.90
2023-01-09T12:07:30.427Z,10.00
2023-01-09T12:11:09.306Z,10.20
2023-01-09T12:14:13.178Z,10.00
2023-01-09T12:17:10.565Z,10.10
2023-01-09T12:20:55.802Z,10.30
2023-01-09T12:24:02.403Z,10.60
2023-01-09T12:26:50.517Z,10.20
2023-01-09T12:29:40.719Z,9.70
2023-01-09T12:32:47.839Z,10.10
2023-01-09T12:35:57.658Z,9.20
2023-01-09T12:38:46.183Z,9.20
2023-01-09T12:41:37.244Z,8.70
2023-01-09T12:45:13.754Z,8.30
2023-01-09T12:47:48.788Z,8.30
2023-01-09T12:50:38.182Z,8.10
2023-01-09T12:53:30.826Z,7.90
2023-01-09T12:56:20.121Z,7.80
2023-01-09T12:59:10.177Z,8.00
2023-01-09T13:01:46.618Z,8.20
2023-01-09T13:04:30.835Z,7.90
2023-01-09T13:07:20.482Z,8.10
2023-01-09T13:10:02.331Z,8.30
2023-01-09T13:12:39.195Z,8.30
2023-01-09T13:15:41.355Z,8.30
2023-01-09T13:19:11.115Z,8.40
2023-01-09T13:21:40.225Z,8.30
2023-01-09T13:24:35.563Z,8.50
2023-01-09T13:27:16.439Z,8.50
2023-01-09T13:29:51.959Z,8.20
2023-01-09T13:32:58.404Z,8.40
2023-01-09T13:35:26.081Z,8.20
2023-01-09T13:37:54.395Z,8.30
2023-01-09T13:40:21.813Z,8.20
2023-01-09T13:43:05.393Z,8.20
2023-01-09T13:45:38.132Z,8.20
2023-01-09T13:48:11.959Z,8.10
2023-01-09T13:50:41.306Z,8.20
2023-01-09T13:53:25.048Z,8.00
2023-01-09T13:55:58.895Z,7.90
2023-01-09T13:59:02.552Z,8.30
2023-01-09T14:01:39.773Z,8.20
2023-01-09T14:04:14.870Z,8.30
2023-01-09T14:06:44.954Z,7.80
2023-01-09T14:09:23.495Z,7.50
2023-01-09T14:12:06.128Z,7.10
2023-01-09T14:14:34.949Z,6.90
2023-01-09T14:17:03.475Z,6.80
2023-01-09T14:19:39.888Z,6.70
2023-01-09T14:22:23.339Z,6.60
2023-01-09T14:24:52.958Z,6.50
2023-01-09T14:27:54.305Z,6.30
2023-01-09T14:30:47.076Z,5.60
2023-01-09T14:33:20.549Z,4.80
2023-01-09T14:36:22.098Z,4.60
2023-01-09T14:39:04.048Z,4.90
2023-01-09T14:42:05.651Z,4.70
2023-01-09T14:45:19.384Z,4.60
2023-01-09T14:48:05.553Z,4.90
2023-01-09T14:50:55.404Z,4.90
2023-01-09T14:53:37.058Z,5.30
2023-01-09T14:56:08.396Z,5.40
2023-01-09T14:58:38.721Z,5.10
2023-01-09T15:01:22.976Z,5.10
2023-01-09T15:04:01.773Z,5.30
2023-01-09T15:06:41.702Z,5.60
2023-01-09T15:09:33.615Z,5.60
2023-01-09T15:12:09.431Z,5.40
2023-01-09T15:14:43.268Z,5.70
2023-01-09T15:17:33.953Z,6.10
2023-01-09T15:20:05.439Z,5.80
2023-01-09T15:22:37.840Z,6.00
2023-01-09T15:25:39.358Z,6.20
2023-01-09T15:28:33.117Z,6.30
2023-01-09T15:31:16.719Z,6.30
2023-01-09T15:33:47.997Z,6.00
2023-01-09T15:36:30.305Z,6.00
2023-01-09T15:38:58.308Z,5.80
2023-01-09T15:41:49.204Z,6.10
2023-01-09T15:44:30.228Z,5.90
2023-01-09T15:47:00.230Z,5.90
2023-01-09T15:49:27.915Z,6.00
2023-01-09T15:51:55.956Z,6.00
2023-01-09T15:54:32.505Z,6.30
2023-01-09T15:57:25.945Z,5.90
2023-01-09T15:59:56.334Z,5.90
2023-01-09T16:02:44.272Z,5.90
2023-01-09T16:05:17.846Z,6.00
2023-01-09T16:07:51.799Z,6.00
2023-01-09T16:10:35.479Z,5.80
2023-01-09T16:13:03.555Z,5.90
2023-01-09T16:15:34.930Z,5.90
2023-01-09T16:18:39.060Z,6.00
2023-01-09T16:21:12.491Z,5.70
2023-01-09T16:23:50.464Z,5.90
2023-01-09T16:26:25.415Z,6.00
2023-01-09T16:28:53.811Z,5.90
2023-01-09T16:31:29.800Z,5.80
2023-01-09T16:34:07.207Z,5.80
2023-01-09T16:36:36.372Z,5.70
2023-01-09T16:39:04.644Z,5.70
2023-01-09T16:41:50.580Z,5.80
2023-01-09T16:44:19.323Z,5.60
2023-01-09T16:46:46.903Z,5.80
2023-01-09T16:49:23.361Z,5.80
2023-01-09T16:51:51.760Z,5.70
2023-01-09T16:54:20.237Z,5.80
2023-01-09T16:56:52.902Z,5.80
2023-01-09T16:59:27.777Z,5.80
2023-01-09T17:01:55.592Z,5.60
2023-01-09T17:04:26.106Z,5.60
2023-01-09T17:06:53.441Z,5.60
2023-01-09T17:09:27.646Z,5.70
2023-01-09T17:11:55.141Z,5.60
2023-01-09T17:14:22.452Z,5.70
2023-01-09T17:16:49.978Z,5.50
2023-01-09T17:19:23.563Z,5.50
2023-01-09T17:21:50.879Z,5.70
2023-01-09T17:24:37.154Z,5.60
2023-01-09T17:27:23.138Z,5.60
2023-01-09T17:29:50.510Z,5.40
2023-01-09T17:32:19.552Z,5.50
